Time;durP1;ratioP1;P1;durP2;ratioP2;P2;SDS_P1;SDS_P2;PMS_P1;PMS_P2;Temp;Humidity;BMP_temperature;BMP_pressure;BME280_temperature;BME280_humidity;BME280_pressure;Samples;Min_cycle;Max_cycle;Signal;HPM_P1;HPM_P2
2023/12/27 00:00:46;;;;;;;7.07;4.37;;;;;;;1.13;100.00;97504.78;5026602;28;20053;-59
2023/12/27 00:03:12;;;;;;;6.97;4.43;;;;;;;1.11;100.00;97506.72;5017832;28;20052;-60
2023/12/27 00:05:38;;;;;;;6.57;4.60;;;;;;;1.12;100.00;97510.97;5016674;28;20541;-61
2023/12/27 00:08:04;;;;;;;8.03;4.80;;;;;;;1.08;100.00;97493.97;5018019;28;20055;-60
2023/12/27 00:10:29;;;;;;;9.57;5.10;;;;;;;1.06;100.00;97497.72;5017972;28;20040;-61
2023/12/27 00:12:55;;;;;;;7.83;5.07;;;;;;;1.11;100.00;97492.81;5001524;28;20041;-60
2023/12/27 00:15:21;;;;;;;8.33;4.77;;;;;;;1.10;100.00;97497.25;5001333;28;20037;-57
2023/12/27 00:17:47;;;;;;;7.37;4.63;;;;;;;1.09;100.00;97492.19;5001456;28;20076;-59
2023/12/27 00:20:12;;;;;;;6.73;4.30;;;;;;;1.07;100.00;97488.88;5017660;28;20045;-58
2023/12/27 00:22:38;;;;;;;6.73;4.47;;;;;;;1.03;100.00;97487.56;5001240;28;20106;-57
2023/12/27 00:25:04;;;;;;;9.67;5.30;;;;;;;1.01;100.00;97489.50;5001597;28;20044;-58
2023/12/27 00:27:30;;;;;;;7.90;5.23;;;;;;;0.92;100.00;97485.97;5001138;28;20041;-57
2023/12/27 00:29:56;;;;;;;9.83;5.00;;;;;;;0.86;100.00;97476.13;5001205;28;20467;-57
2023/12/27 00:32:22;;;;;;;9.37;5.23;;;;;;;0.86;100.00;97481.34;5001366;28;20067;-58
2023/12/27 00:34:49;;;;;;;8.70;5.23;;;;;;;0.90;100.00;97477.50;5017495;28;20041;-57
2023/12/27 00:37:16;;;;;;;7.37;5.03;;;;;;;0.84;100.00;97475.47;5002817;28;20266;-60
2023/12/27 00:39:44;;;;;;;9.47;5.17;;;;;;;0.82;100.00;97473.97;5020457;28;20040;-60
2023/12/27 00:42:10;;;;;;;8.23;5.43;;;;;;;0.77;100.00;97482.25;5031259;28;20180;-60
2023/12/27 00:44:36;;;;;;;7.30;4.90;;;;;;;0.76;100.00;97479.78;4984447;28;20560;-61
2023/12/27 00:47:02;;;;;;;8.10;4.87;;;;;;;0.74;100.00;97479.16;4968623;28;20322;-60
2023/12/27 00:49:28;;;;;;;9.03;5.40;;;;;;;0.73;100.00;97472.25;4984578;28;20041;-60
2023/12/27 00:51:55;;;;;;;8.90;5.60;;;;;;;0.68;100.00;97480.53;4968802;28;20152;-62
2023/12/27 00:54:20;;;;;;;8.60;5.50;;;;;;;0.70;100.00;97480.41;4967983;28;20525;-58
2023/12/27 00:56:48;;;;;;;8.00;5.50;;;;;;;0.67;100.00;97483.31;5000563;28;20049;-60
2023/12/27 00:59:16;;;;;;;8.73;5.60;;;;;;;0.67;100.00;97480.69;4984731;28;20041;-56
2023/12/27 01:01:43;;;;;;;8.50;5.47;;;;;;;0.66;100.00;97474.63;4968044;28;20417;-58
2023/12/27 01:04:09;;;;;;;10.77;5.27;;;;;;;0.65;100.00;97474.78;5000815;28;20372;-57
2023/12/27 01:06:35;;;;;;;9.07;5.47;;;;;;;0.64;100.00;97473.16;4982419;28;20045;-62
2023/12/27 01:09:01;;;;;;;10.00;5.60;;;;;;;0.66;100.00;97466.00;4982614;28;20042;-57
2023/12/27 01:11:27;;;;;;;9.57;5.83;;;;;;;0.65;100.00;97475.63;4982399;28;20045;-59
2023/12/27 01:13:53;;;;;;;9.57;5.20;;;;;;;0.70;100.00;97475.16;5014939;28;20057;-60
2023/12/27 01:16:20;;;;;;;7.47;4.90;;;;;;;0.65;100.00;97473.00;5022826;28;20044;-61
2023/12/27 01:18:46;;;;;;;10.67;5.40;;;;;;;0.66;100.00;97472.03;5039330;28;20047;-56
2023/12/27 01:21:13;;;;;;;8.67;5.13;;;;;;;0.67;100.00;97467.63;5023825;28;20049;-57
2023/12/27 01:23:40;;;;;;;9.20;5.43;;;;;;;0.70;100.00;97476.00;5024508;28;20474;-60
2023/12/27 01:26:06;;;;;;;8.30;5.40;;;;;;;0.75;100.00;97467.72;5024378;28;20132;-60
2023/12/27 01:28:32;;;;;;;9.97;5.13;;;;;;;0.77;100.00;97473.63;5040723;28;20072;-58
2023/12/27 01:30:58;;;;;;;8.63;5.10;;;;;;;0.79;100.00;97463.81;5040578;28;20538;-56
2023/12/27 01:33:24;;;;;;;7.90;5.23;;;;;;;0.79;100.00;97461.22;5040212;28;20148;-57
2023/12/27 01:35:50;;;;;;;8.23;5.03;;;;;;;0.85;100.00;97463.22;5023888;28;20044;-57
2023/12/27 01:38:18;;;;;;;7.80;5.23;;;;;;;0.84;100.00;97466.81;5024786;28;20040;-58
2023/12/27 01:40:51;;;;;;;9.00;5.77;;;;;;;0.97;100.00;97475.91;5040323;28;20469;-59
2023/12/27 01:43:19;;;;;;;7.13;4.70;;;;;;;0.95;100.00;97466.56;5040258;28;20040;-63
2023/12/27 01:45:46;;;;;;;7.90;4.80;;;;;;;1.06;100.00;97472.38;5073442;28;20498;-57
2023/12/27 01:48:12;;;;;;;6.33;4.53;;;;;;;1.16;100.00;97467.06;5040076;28;20505;-56
2023/12/27 01:50:38;;;;;;;5.73;3.73;;;;;;;1.32;100.00;97470.59;5024041;28;20040;-57
2023/12/27 01:53:08;;;;;;;10.23;5.63;;;;;;;1.33;100.00;97464.41;5040258;28;20055;-58
2023/12/27 01:55:34;;;;;;;7.60;4.80;;;;;;;1.45;100.00;97472.81;5023832;28;20052;-58
2023/12/27 01:58:00;;;;;;;7.83;5.10;;;;;;;1.42;100.00;97467.91;5039881;28;20048;-60
2023/12/27 02:00:26;;;;;;;7.83;4.53;;;;;;;1.47;100.00;97470.88;5039809;28;20385;-56
2023/12/27 02:02:53;;;;;;;6.70;4.70;;;;;;;1.54;100.00;97469.28;5039862;28;20044;-59
2023/12/27 02:05:19;;;;;;;6.50;4.80;;;;;;;1.46;100.00;97471.84;5039526;28;20040;-58
2023/12/27 02:07:46;;;;;;;10.40;5.50;;;;;;;1.37;100.00;97470.13;5039610;28;20201;-60
2023/12/27 02:10:12;;;;;;;8.30;5.17;;;;;;;1.32;100.00;97477.66;5056353;28;20048;-63
2023/12/27 02:12:38;;;;;;;7.40;4.63;;;;;;;1.27;100.00;97469.44;5039929;28;20051;-57
2023/12/27 02:15:05;;;;;;;7.40;4.97;;;;;;;1.27;100.00;97466.81;5072909;28;20055;-58
2023/12/27 02:17:35;;;;;;;8.13;4.93;;;;;;;1.26;100.00;97463.38;5008520;28;20521;-58
2023/12/27 02:20:01;;;;;;;6.67;4.50;;;;;;;1.23;100.00;97462.88;5039599;28;20040;-57
2023/12/27 02:22:28;;;;;;;9.57;5.53;;;;;;;1.22;100.00;97461.22;5023421;28;20101;-56
2023/12/27 02:24:54;;;;;;;7.17;4.70;;;;;;;1.14;100.00;97469.00;5023095;28;20101;-59
2023/12/27 02:27:21;;;;;;;6.80;4.60;;;;;;;1.14;100.00;97464.59;5039298;28;20486;-58
2023/12/27 02:29:46;;;;;;;8.60;5.07;;;;;;;1.11;100.00;97464.91;5039497;28;20196;-57
2023/12/27 02:32:12;;;;;;;7.27;4.70;;;;;;;1.15;100.00;97466.22;5023327;28;20060;-60
2023/12/27 02:34:38;;;;;;;7.67;4.80;;;;;;;1.11;100.00;97459.69;5056209;28;20190;-60
2023/12/27 02:37:04;;;;;;;8.77;5.60;;;;;;;1.11;100.00;97464.06;5022923;28;20040;-58
2023/12/27 02:39:30;;;;;;;8.80;5.10;;;;;;;1.19;100.00;97469.38;5022960;28;20048;-55
2023/12/27 02:41:56;;;;;;;9.03;5.07;;;;;;;1.30;100.00;97469.13;5022859;28;20040;-58
2023/12/27 02:44:26;;;;;;;7.37;4.60;;;;;;;1.35;100.00;97466.88;5040529;28;20154;-56
2023/12/27 02:46:55;;;;;;;7.23;4.90;;;;;;;1.42;100.00;97471.34;5026521;28;20048;-58
2023/12/27 02:49:21;;;;;;;10.97;5.30;;;;;;;1.37;100.00;97465.75;5042229;28;20039;-57
2023/12/27 02:51:47;;;;;;;8.77;5.23;;;;;;;1.44;100.00;97458.94;5042188;28;20040;-56
2023/12/27 02:54:14;;;;;;;8.33;5.30;;;;;;;1.34;100.00;97470.44;5059176;28;20123;-61
2023/12/27 02:56:40;;;;;;;7.67;4.60;;;;;;;1.31;100.00;97461.13;5042320;28;20196;-58
2023/12/27 02:59:08;;;;;;;6.70;4.57;;;;;;;1.36;100.00;97463.28;5042090;28;20135;-57
2023/12/27 03:01:34;;;;;;;7.33;4.50;;;;;;;1.30;100.00;97459.50;5042214;28;20046;-66
2023/12/27 03:03:59;;;;;;;8.83;5.63;;;;;;;1.21;100.00;97470.03;5025067;28;20043;-65
2023/12/27 03:06:25;;;;;;;6.57;4.47;;;;;;;1.22;100.00;97458.59;5041803;28;20067;-65
2023/12/27 03:08:53;;;;;;;7.70;4.97;;;;;;;1.19;100.00;97453.69;5042018;28;20452;-60
2023/12/27 03:11:19;;;;;;;9.77;5.53;;;;;;;1.22;100.00;97461.22;5009734;28;20044;-63
2023/12/27 03:13:45;;;;;;;6.73;4.40;;;;;;;1.18;100.00;97462.50;5042000;28;20109;-70
2023/12/27 03:16:12;;;;;;;6.77;4.83;;;;;;;1.16;100.00;97467.91;5041912;28;20036;-59
2023/12/27 03:18:38;;;;;;;6.97;4.83;;;;;;;1.12;100.00;97457.91;5025477;28;20036;-57
2023/12/27 03:21:05;;;;;;;7.70;4.70;;;;;;;1.11;100.00;97466.69;5025159;28;20063;-60
2023/12/27 03:23:30;;;;;;;8.33;4.93;;;;;;;1.07;100.00;97460.13;5025250;28;20047;-57
2023/12/27 03:25:56;;;;;;;6.97;4.80;;;;;;;1.01;100.00;97460.75;5025117;28;20044;-57
2023/12/27 03:28:23;;;;;;;8.80;4.97;;;;;;;1.12;100.00;97466.53;5058084;28;20108;-55
2023/12/27 03:30:49;;;;;;;10.23;5.83;;;;;;;1.03;100.00;97457.00;5041440;28;20044;-55
2023/12/27 03:33:15;;;;;;;11.13;5.50;;;;;;;1.04;100.00;97458.66;5042124;28;20055;-56
2023/12/27 03:35:43;;;;;;;9.53;5.77;;;;;;;1.06;100.00;97458.50;4981157;28;20049;-63
2023/12/27 03:38:09;;;;;;;8.57;5.50;;;;;;;1.05;100.00;97455.06;4965294;28;20123;-65
2023/12/27 03:40:35;;;;;;;8.33;5.17;;;;;;;1.07;100.00;97453.13;4981021;28;20566;-65
2023/12/27 03:43:01;;;;;;;6.60;4.60;;;;;;;1.14;100.00;97462.00;4964748;28;20108;-62
2023/12/27 03:45:27;;;;;;;9.13;5.20;;;;;;;1.16;100.00;97469.69;4995848;28;20053;-60
2023/12/27 03:47:54;;;;;;;9.60;5.37;;;;;;;1.15;100.00;97462.81;4970787;28;20042;-62
2023/12/27 03:50:20;;;;;;;8.80;5.17;;;;;;;1.15;100.00;97466.22;4929630;28;20140;-64
2023/12/27 03:52:47;;;;;;;8.40;4.73;;;;;;;1.19;100.00;97462.34;4944950;28;20501;-67
2023/12/27 03:55:14;;;;;;;8.27;5.50;;;;;;;1.18;100.00;97460.72;4947219;28;20061;-64
2023/12/27 03:57:43;;;;;;;9.57;6.13;;;;;;;1.29;100.00;97467.50;4915304;28;20465;-61
2023/12/27 04:00:12;;;;;;;9.77;5.60;;;;;;;1.38;100.00;97472.59;4919506;29;20050;-64
2023/12/27 04:02:42;;;;;;;7.57;5.03;;;;;;;1.42;100.00;97465.28;4904486;29;20505;-62
2023/12/27 04:05:08;;;;;;;7.93;5.20;;;;;;;1.52;100.00;97464.19;4918237;29;20109;-61
2023/12/27 04:07:35;;;;;;;8.57;5.13;;;;;;;1.60;100.00;97461.63;4953490;28;20082;-59
2023/12/27 04:10:03;;;;;;;7.73;4.90;;;;;;;1.59;100.00;97464.41;4955742;28;20105;-61
2023/12/27 04:12:29;;;;;;;11.07;5.77;;;;;;;1.61;100.00;97459.84;4940519;28;20047;-61
2023/12/27 04:15:07;;;;;;;10.30;5.30;;;;;;;1.75;100.00;97464.50;4941048;28;20046;-60
2023/12/27 04:17:33;;;;;;;9.07;5.77;;;;;;;1.63;100.00;97465.72;4955297;28;20500;-64
2023/12/27 04:20:01;;;;;;;8.17;5.47;;;;;;;1.53;100.00;97467.63;4972642;28;20081;-62
2023/12/27 04:22:28;;;;;;;9.57;5.20;;;;;;;1.50;100.00;97463.53;4974620;28;20059;-62
2023/12/27 04:24:58;;;;;;;8.10;5.43;;;;;;;1.45;100.00;97464.97;5014957;28;20110;-61
2023/12/27 04:27:24;;;;;;;8.33;5.23;;;;;;;1.41;100.00;97474.09;5006397;28;20116;-62
2023/12/27 04:29:51;;;;;;;7.70;4.83;;;;;;;1.40;100.00;97470.66;4984233;28;20057;-61
2023/12/27 04:32:17;;;;;;;7.83;5.13;;;;;;;1.31;100.00;97475.97;4965407;28;20046;-61
2023/12/27 04:34:43;;;;;;;11.03;6.40;;;;;;;1.26;100.00;97479.06;4980458;28;20152;-61
2023/12/27 04:37:10;;;;;;;12.00;6.20;;;;;;;1.26;100.00;97475.66;4967049;28;21070;-58
2023/12/27 04:39:36;;;;;;;9.63;5.87;;;;;;;1.17;100.00;97476.56;5000259;28;20054;-60
2023/12/27 04:42:03;;;;;;;7.30;5.03;;;;;;;1.19;100.00;97471.97;4982285;28;20081;-59
2023/12/27 04:44:29;;;;;;;8.90;5.23;;;;;;;1.19;100.00;97470.19;4950513;28;20384;-63
2023/12/27 04:46:56;;;;;;;10.07;6.00;;;;;;;1.20;100.00;97468.41;4951903;28;20089;-65
2023/12/27 04:49:23;;;;;;;9.63;5.77;;;;;;;1.24;100.00;97465.34;4964721;28;20108;-60
2023/12/27 04:51:49;;;;;;;8.93;5.60;;;;;;;1.26;100.00;97465.19;4980133;28;20045;-61
2023/12/27 04:54:16;;;;;;;7.53;4.97;;;;;;;1.32;100.00;97467.19;4978928;28;20496;-60
2023/12/27 04:56:42;;;;;;;11.07;6.47;;;;;;;1.20;100.00;97461.38;4963870;28;20077;-61
2023/12/27 04:59:08;;;;;;;8.87;5.97;;;;;;;1.20;100.00;97457.97;4963673;28;20515;-60
2023/12/27 05:01:34;;;;;;;8.87;5.17;;;;;;;1.24;100.00;97461.91;4995035;28;20045;-59
2023/12/27 05:04:00;;;;;;;9.50;5.73;;;;;;;1.23;100.00;97458.44;4938149;28;20065;-58
2023/12/27 05:06:26;;;;;;;10.30;5.40;;;;;;;1.20;100.00;97461.38;4941174;28;20054;-60
2023/12/27 05:08:53;;;;;;;9.77;5.90;;;;;;;1.22;100.00;97461.22;4957835;28;20100;-58
2023/12/27 05:11:19;;;;;;;8.70;5.60;;;;;;;1.20;100.00;97461.38;4958028;28;20046;-62
2023/12/27 05:13:52;;;;;;;11.13;6.50;;;;;;;1.20;100.00;97457.97;4960712;28;20053;-62
2023/12/27 05:16:23;;;;;;;10.97;5.83;;;;;;;1.27;100.00;97459.81;4938404;28;20062;-64
2023/12/27 05:18:49;;;;;;;9.40;5.60;;;;;;;1.19;100.00;97458.91;4923191;28;20501;-62
2023/12/27 05:21:19;;;;;;;10.50;6.37;;;;;;;1.30;100.00;97454.28;4923414;28;20086;-60
2023/12/27 05:23:46;;;;;;;10.03;6.07;;;;;;;1.23;100.00;97455.84;4922965;28;20085;-60
2023/12/27 05:26:13;;;;;;;12.50;6.50;;;;;;;1.23;100.00;97461.06;4922757;28;20248;-58
2023/12/27 05:28:41;;;;;;;10.60;5.97;;;;;;;1.22;100.00;97456.81;4925664;28;20161;-58
2023/12/27 05:31:21;;;;;;;10.20;5.47;;;;;;;1.22;100.00;97461.22;4927588;28;20077;-58
2023/12/27 05:33:49;;;;;;;8.60;5.77;;;;;;;1.24;100.00;97454.88;4964910;28;20053;-60
2023/12/27 05:36:17;;;;;;;8.55;5.53;;;;;;;1.21;100.00;97456.97;4968469;28;20050;-62
2023/12/27 05:38:46;;;;;;;8.77;5.30;;;;;;;1.28;100.00;97463.22;4960451;28;20064;-60
2023/12/27 05:41:13;;;;;;;9.37;5.83;;;;;;;1.23;100.00;97457.66;4947539;28;20108;-62
2023/12/27 05:43:39;;;;;;;11.77;6.03;;;;;;;1.11;100.00;97467.53;4932803;28;20062;-61
2023/12/27 05:46:06;;;;;;;9.40;5.50;;;;;;;1.07;100.00;97458.34;4951228;28;20125;-59
2023/12/27 05:48:35;;;;;;;9.57;5.47;;;;;;;1.09;100.00;97461.63;4900123;28;20138;-61
2023/12/27 05:51:01;;;;;;;11.97;6.30;;;;;;;1.15;100.00;97466.22;4930882;28;20138;-59
2023/12/27 05:53:26;;;;;;;10.27;6.43;;;;;;;1.13;100.00;97468.19;4939897;28;20158;-61
2023/12/27 05:55:54;;;;;;;8.70;5.03;;;;;;;1.19;100.00;97467.59;4943133;28;20062;-66
2023/12/27 05:58:21;;;;;;;8.80;4.97;;;;;;;1.19;100.00;97467.59;4938049;29;20055;-61
2023/12/27 06:00:47;;;;;;;7.47;4.23;;;;;;;1.21;100.00;97470.03;4906326;29;20462;-63
2023/12/27 06:03:13;;;;;;;6.93;4.37;;;;;;;1.25;100.00;97471.38;4890799;29;20405;-62
2023/12/27 06:05:40;;;;;;;7.13;3.97;;;;;;;1.24;100.00;97480.19;4937754;29;20121;-62
2023/12/27 06:08:07;;;;;;;7.30;4.33;;;;;;;1.18;100.00;97483.41;4914088;29;20429;-60
2023/12/27 06:10:33;;;;;;;7.20;4.30;;;;;;;1.14;100.00;97475.06;4921781;29;20043;-62
2023/12/27 06:13:02;;;;;;;6.77;4.40;;;;;;;1.21;100.00;97481.34;4932083;28;20056;-62
2023/12/27 06:15:31;;;;;;;6.87;3.73;;;;;;;1.18;100.00;97486.03;4961777;28;20081;-61
2023/12/27 06:17:57;;;;;;;11.70;5.43;;;;;;;1.14;100.00;97487.28;4983695;28;20095;-65
2023/12/27 06:20:22;;;;;;;8.23;4.57;;;;;;;1.14;100.00;97492.53;4957540;28;20149;-66
2023/12/27 06:22:48;;;;;;;8.67;5.17;;;;;;;1.17;100.00;97487.03;4952822;28;20069;-65
2023/12/27 06:25:14;;;;;;;7.10;4.13;;;;;;;1.16;100.00;97488.81;4943634;29;20059;-63
2023/12/27 06:27:41;;;;;;;10.03;4.70;;;;;;;1.19;100.00;97492.91;4897152;29;20115;-64
2023/12/27 06:30:08;;;;;;;9.57;4.77;;;;;;;1.23;100.00;97487.22;4929541;28;20046;-63
2023/12/27 06:32:33;;;;;;;12.33;5.80;;;;;;;1.22;100.00;97488.19;4915471;28;20075;-65
2023/12/27 06:35:00;;;;;;;10.47;5.77;;;;;;;1.20;100.00;97490.13;4931348;28;20051;-64
2023/12/27 06:37:26;;;;;;;10.03;5.73;;;;;;;1.33;100.00;97484.50;4945734;28;20042;-62
2023/12/27 06:39:52;;;;;;;11.03;5.33;;;;;;;1.37;100.00;97491.06;4930257;28;20058;-65
2023/12/27 06:42:18;;;;;;;8.00;4.57;;;;;;;1.37;100.00;97494.50;4933400;28;20045;-64
2023/12/27 06:44:45;;;;;;;6.83;4.67;;;;;;;1.47;100.00;97500.47;4961401;28;20086;-64
2023/12/27 06:47:11;;;;;;;9.67;4.40;;;;;;;1.60;100.00;97498.25;4903760;28;20051;-62
2023/12/27 06:49:37;;;;;;;7.77;4.37;;;;;;;1.70;100.00;97498.16;4969561;28;20039;-64
2023/12/27 06:52:03;;;;;;;11.67;5.73;;;;;;;1.81;100.00;97499.69;4985946;28;20049;-64
2023/12/27 06:54:29;;;;;;;9.40;5.53;;;;;;;1.80;100.00;97505.91;4955566;28;20083;-64
2023/12/27 06:57:00;;;;;;;8.37;5.37;;;;;;;1.88;100.00;97509.38;5012554;28;20052;-63
2023/12/27 06:59:34;;;;;;;6.33;3.67;;;;;;;2.06;100.00;97504.84;5050451;28;20483;-65
2023/12/27 07:02:07;;;;;;;6.77;4.30;;;;;;;2.15;100.00;97508.34;4979427;28;20041;-64
2023/12/27 07:04:34;;;;;;;6.47;4.00;;;;;;;2.27;100.00;97510.53;4990202;28;20061;-65
2023/12/27 07:07:12;;;;;;;5.57;4.10;;;;;;;2.54;100.00;97520.75;4975817;28;20054;-65
2023/12/27 07:09:42;;;;;;;;;;;;;;;2.76;100.00;97522.78;5002276;28;20061;-64
2023/12/27 07:12:09;;;;;;;8.43;4.30;;;;;;;2.71;100.00;97521.63;4995797;28;19979;-64
2023/12/27 07:14:35;;;;;;;6.73;4.67;;;;;;;2.85;100.00;97532.31;4997783;28;20063;-64
2023/12/27 07:17:04;;;;;;;12.10;5.70;;;;;;;2.92;100.00;97522.81;4981918;28;20053;-63
2023/12/27 07:19:30;;;;;;;7.43;3.97;;;;;;;3.02;100.00;97531.34;4982027;28;20037;-62
2023/12/27 07:21:57;;;;;;;6.27;4.07;;;;;;;3.05;100.00;97531.03;4982130;28;20372;-64
2023/12/27 07:24:23;;;;;;;7.23;3.73;;;;;;;3.12;100.00;97529.38;4982371;28;20046;-61
2023/12/27 07:26:50;;;;;;;8.93;5.23;;;;;;;3.11;100.00;97534.78;4997852;28;20056;-63
2023/12/27 07:29:17;;;;;;;8.37;4.27;;;;;;;3.25;100.00;97537.59;4965809;28;20128;-65
2023/12/27 07:31:44;;;;;;;8.17;4.50;;;;;;;3.25;100.00;97537.59;4982024;28;20486;-64
2023/12/27 07:34:10;;;;;;;6.83;3.80;;;;;;;3.29;100.00;97533.66;5038029;28;20064;-65
2023/12/27 07:36:36;;;;;;;7.67;4.40;;;;;;;3.31;100.00;97544.81;5021680;28;20055;-64
2023/12/27 07:39:05;;;;;;;8.07;4.40;;;;;;;3.33;100.00;97550.72;5021777;28;20049;-65
2023/12/27 07:41:33;;;;;;;9.23;4.60;;;;;;;3.40;100.00;97558.72;5006040;28;20036;-65
2023/12/27 07:43:58;;;;;;;8.50;5.47;;;;;;;3.33;100.00;97552.50;5005624;28;20067;-65
2023/12/27 07:46:28;;;;;;;6.90;4.13;;;;;;;3.46;100.00;97556.28;5021846;28;20475;-65
2023/12/27 07:48:54;;;;;;;13.93;8.43;;;;;;;3.27;100.00;97561.88;5038243;28;20106;-64
2023/12/27 07:51:36;;;;;;;11.57;6.13;;;;;;;3.42;100.00;97564.66;4988688;28;20367;-64
2023/12/27 07:54:14;;;;;;;9.30;5.30;;;;;;;3.46;100.00;97571.19;4993932;28;20053;-65
2023/12/27 07:57:04;;;;;;;7.57;5.27;;;;;;;3.48;100.00;97566.59;5021792;28;20055;-64
2023/12/27 07:59:31;;;;;;;9.10;5.57;;;;;;;3.36;100.00;97565.31;5037885;28;20048;-67
2023/12/27 08:01:58;;;;;;;7.20;5.03;;;;;;;3.42;100.00;97570.72;5021670;28;20048;-65
2023/12/27 08:04:24;;;;;;;9.17;5.50;;;;;;;3.40;100.00;97561.34;5005073;28;20041;-65
2023/12/27 08:06:51;;;;;;;9.07;6.00;;;;;;;3.41;100.00;97569.06;5004881;28;20044;-65
2023/12/27 08:09:18;;;;;;;9.03;5.13;;;;;;;3.42;100.00;97568.09;5005084;28;20032;-66
2023/12/27 08:11:43;;;;;;;7.70;4.77;;;;;;;3.42;100.00;97575.97;5021102;28;20123;-62
2023/12/27 08:14:09;;;;;;;10.97;5.97;;;;;;;3.44;100.00;97571.34;5021258;28;20467;-64
2023/12/27 08:16:35;;;;;;;9.00;5.70;;;;;;;3.45;100.00;97580.06;5004794;28;20048;-65
2023/12/27 08:19:01;;;;;;;9.43;5.23;;;;;;;3.44;100.00;97570.56;5004883;28;20036;-66
2023/12/27 08:21:28;;;;;;;9.43;5.83;;;;;;;3.45;100.00;97578.25;5021713;28;20072;-62
2023/12/27 08:23:54;;;;;;;9.07;5.80;;;;;;;3.45;100.00;97580.88;5037706;28;20041;-61
2023/12/27 08:26:20;;;;;;;9.37;5.60;;;;;;;3.54;100.00;97580.91;5004532;28;20094;-62
2023/12/27 08:28:46;;;;;;;7.83;5.73;;;;;;;3.57;100.00;97577.94;5021205;28;20044;-62
2023/12/27 08:31:13;;;;;;;9.77;5.67;;;;;;;3.61;100.00;97594.97;5021209;28;20051;-63
2023/12/27 08:33:40;;;;;;;8.10;5.37;;;;;;;3.60;100.00;97593.34;5021121;28;20051;-62
2023/12/27 08:36:06;;;;;;;9.57;5.87;;;;;;;3.58;100.00;97601.41;5004838;28;20052;-63
2023/12/27 08:38:32;;;;;;;9.83;6.00;;;;;;;3.62;100.00;97591.38;5037106;28;20094;-66
2023/12/27 08:40:58;;;;;;;12.10;6.27;;;;;;;3.63;100.00;97591.19;5021287;28;20410;-62
2023/12/27 08:43:29;;;;;;;10.83;5.77;;;;;;;3.63;100.00;97593.03;5037603;28;20048;-63
2023/12/27 08:45:58;;;;;;;9.35;5.68;;;;;;;3.72;100.00;97597.28;5047820;28;20059;-62
2023/12/27 08:48:24;;;;;;;9.17;5.60;;;;;;;3.66;100.00;97588.25;5044107;28;20036;-62
2023/12/27 08:50:51;;;;;;;11.80;6.27;;;;;;;3.72;100.00;97589.41;5077378;28;20043;-62
2023/12/27 08:53:17;;;;;;;10.27;6.87;;;;;;;3.74;100.00;97590.06;5060293;28;20051;-60
2023/12/27 08:55:42;;;;;;;10.73;6.87;;;;;;;3.77;100.00;97595.78;5060459;28;20051;-62
2023/12/27 08:58:09;;;;;;;12.07;7.33;;;;;;;3.80;100.00;97599.91;5060478;28;20428;-61
2023/12/27 09:00:35;;;;;;;9.50;5.80;;;;;;;3.85;100.00;97602.84;5060148;28;20054;-63
2023/12/27 09:03:10;;;;;;;11.67;6.53;;;;;;;4.03;100.00;97603.50;5062377;28;20051;-63
2023/12/27 09:05:36;;;;;;;12.13;7.30;;;;;;;3.94;100.00;97607.91;5032081;28;20043;-64
2023/12/27 09:08:28;;;;;;;10.47;6.90;;;;;;;4.16;100.00;97593.28;5081352;28;20039;-60
2023/12/27 09:10:55;;;;;;;13.40;8.23;;;;;;;4.04;100.00;97594.63;5080084;28;20556;-59
2023/12/27 09:13:21;;;;;;;22.00;11.43;;;;;;;3.89;100.00;97593.66;5047737;28;20126;-63
2023/12/27 09:15:47;;;;;;;16.80;8.80;;;;;;;3.96;100.00;97594.63;5064155;28;20530;-64
2023/12/27 09:18:13;;;;;;;12.83;7.27;;;;;;;4.03;100.00;97596.41;5064331;28;20508;-63
2023/12/27 09:20:38;;;;;;;12.17;7.13;;;;;;;4.17;100.00;97598.38;5063899;28;20142;-61
2023/12/27 09:23:04;;;;;;;9.70;5.97;;;;;;;4.31;100.00;97607.34;5081125;28;20385;-66
2023/12/27 09:25:30;;;;;;;10.97;5.80;;;;;;;4.45;100.00;97607.50;5064396;28;20043;-62
2023/12/27 09:27:57;;;;;;;8.83;5.87;;;;;;;4.66;100.00;97599.84;5080684;28;20036;-64
2023/12/27 09:30:22;;;;;;;11.57;6.17;;;;;;;4.90;100.00;97606.81;5030838;28;20059;-64
2023/12/27 09:32:49;;;;;;;9.93;6.60;;;;;;;5.35;100.00;97606.88;5063992;28;20378;-64
2023/12/27 09:35:15;;;;;;;11.60;6.57;;;;;;;5.90;100.00;97614.56;5064245;28;20097;-62
2023/12/27 09:37:40;;;;;;;12.38;7.25;;;;;;;6.42;100.00;97618.84;5063718;28;20039;-63
2023/12/27 09:40:07;;;;;;;14.80;8.43;;;;;;;6.82;100.00;97599.91;5047088;28;20138;-65
2023/12/27 09:42:33;;;;;;;19.88;9.68;;;;;;;7.10;100.00;97599.22;5047422;28;20066;-64
2023/12/27 09:44:59;;;;;;;16.27;9.82;;;;;;;7.19;100.00;97600.72;5046901;28;20465;-64
2023/12/27 09:47:27;;;;;;;16.52;8.60;;;;;;;7.26;100.00;97601.63;5047115;28;20527;-65
2023/12/27 09:49:55;;;;;;;13.27;7.20;;;;;;;7.11;100.00;97587.63;5003525;28;20333;-64
2023/12/27 09:52:23;;;;;;;11.80;7.05;;;;;;;7.04;100.00;97587.59;5019288;28;20053;-62
2023/12/27 09:54:49;;;;;;;12.48;7.47;;;;;;;7.03;100.00;97587.78;5003106;28;20055;-64
2023/12/27 09:57:15;;;;;;;13.13;6.57;;;;;;;7.18;100.00;97588.53;5002802;28;20075;-62
2023/12/27 09:59:45;;;;;;;8.98;5.53;;;;;;;7.38;100.00;97585.09;5003150;28;20049;-64
2023/12/27 10:02:32;;;;;;;9.57;6.07;;;;;;;7.41;100.00;97584.72;5002972;28;20094;-65
2023/12/27 10:05:07;;;;;;;9.38;5.25;;;;;;;7.35;100.00;97593.38;5019399;28;20135;-64
2023/12/27 10:07:38;;;;;;;7.80;5.20;;;;;;;7.16;100.00;97594.00;5019306;28;20080;-65
2023/12/27 10:10:08;;;;;;;8.52;5.50;;;;;;;7.10;100.00;97594.75;5020490;28;20048;-62
2023/12/27 10:12:35;;;;;;;6.65;4.72;;;;;;;6.88;100.00;97599.16;5003437;28;20075;-65
2023/12/27 10:15:02;;;;;;;9.18;5.30;;;;;;;6.74;100.00;97596.53;5002787;28;20541;-65
2023/12/27 10:17:31;;;;;;;7.90;5.20;;;;;;;6.54;100.00;97604.19;5003144;28;20549;-64
2023/12/27 10:19:57;;;;;;;7.95;4.38;;;;;;;6.51;100.00;97604.56;5002689;28;20449;-64
2023/12/27 10:22:23;;;;;;;6.68;4.50;;;;;;;6.40;100.00;97612.91;4980069;28;20136;-63
2023/12/27 10:24:49;;;;;;;6.50;4.18;;;;;;;6.31;100.00;97613.16;4995787;28;20149;-64
2023/12/27 10:27:16;;;;;;;5.47;3.70;;;;;;;6.27;100.00;97619.81;4979416;28;20353;-61
2023/12/27 10:29:48;;;;;;;5.43;4.10;;;;;;;6.19;100.00;97617.25;4957028;28;20080;-64
2023/12/27 10:32:20;;;;;;;6.15;4.22;;;;;;;6.09;100.00;97620.13;4922521;28;20063;-65
2023/12/27 10:34:47;;;;;;;6.07;3.50;;;;;;;5.93;100.00;97620.28;4973614;28;20145;-63
2023/12/27 10:37:13;;;;;;;5.30;3.05;;;;;;;5.80;100.00;97619.19;4975416;28;20145;-63
2023/12/27 10:39:47;;;;;;;5.05;3.10;;;;;;;5.85;100.00;97622.16;4973465;28;20054;-62
2023/12/27 10:42:16;;;;;;;4.82;3.00;;;;;;;5.75;100.00;97626.84;4973536;28;20042;-62
2023/12/27 10:44:46;;;;;;;3.92;2.67;;;;;;;5.63;100.00;97621.16;4957367;28;20061;-64
2023/12/27 10:47:17;;;;;;;3.50;2.75;;;;;;;5.71;100.00;97626.38;4973086;28;20060;-64
2023/12/27 10:49:46;;;;;;;3.70;2.72;;;;;;;5.73;100.00;97629.66;4973544;28;20156;-63
2023/12/27 10:52:12;;;;;;;4.72;3.08;;;;;;;5.74;100.00;97627.81;4973298;28;20043;-59
2023/12/27 10:54:43;;;;;;;5.07;3.10;;;;;;;5.88;100.00;97627.06;4976544;28;20058;-63
2023/12/27 10:57:15;;;;;;;3.67;2.70;;;;;;;5.97;100.00;97626.00;4960181;28;20065;-64
2023/12/27 10:59:41;;;;;;;4.85;2.95;;;;;;;5.94;100.00;97635.09;4995424;28;20057;-62
2023/12/27 11:02:08;;;;;;;3.22;2.72;;;;;;;5.95;100.00;97642.00;5005377;28;20112;-63
2023/12/27 11:04:34;;;;;;;3.78;2.85;;;;;;;5.92;100.00;97642.34;5045876;28;20053;-62
2023/12/27 11:07:00;;;;;;;3.00;2.40;;;;;;;5.88;100.00;97646.34;5045731;28;20051;-61
2023/12/27 11:09:28;;;;;;;3.42;2.63;;;;;;;5.95;100.00;97641.19;5045783;28;20469;-63
2023/12/27 11:11:55;;;;;;;4.43;3.10;;;;;;;6.04;100.00;97648.81;5045916;28;20050;-61
2023/12/27 11:14:24;;;;;;;5.43;3.20;;;;;;;6.08;100.00;97644.03;5062204;28;20059;-62
2023/12/27 11:16:52;;;;;;;3.22;2.50;;;;;;;6.12;100.00;97650.59;5046058;28;20040;-61
2023/12/27 11:19:19;;;;;;;4.13;3.10;;;;;;;6.06;100.00;97646.00;5062063;28;20047;-62
2023/12/27 11:21:47;;;;;;;4.50;3.10;;;;;;;6.00;100.00;97650.19;5062461;28;20035;-62
2023/12/27 11:24:13;;;;;;;3.90;3.00;;;;;;;6.02;100.00;97644.75;5045687;28;20047;-63
2023/12/27 11:26:39;;;;;;;5.13;3.08;;;;;;;6.02;100.00;97648.19;5020780;28;20063;-65
2023/12/27 11:29:10;;;;;;;3.90;2.85;;;;;;;6.13;100.00;97645.16;5021034;28;20085;-61
2023/12/27 11:31:38;;;;;;;3.83;2.97;;;;;;;6.08;100.00;97655.41;5021146;28;20080;-63